Time;durP1;ratioP1;P1;durP2;ratioP2;P2;SDS_P1;SDS_P2;PMS_P1;PMS_P2;Temp;Humidity;BMP_temperature;BMP_pressure;BME280_temperature;BME280_humidity;BME280_pressure;Samples;Min_cycle;Max_cycle;Signal;HPM_P1;HPM_P2
2022/08/19 00:01:41;;;;;;;10.73;7.68;;;16.70;99.90;;;;;;5100008;28;20040;-51
2022/08/19 00:04:09;;;;;;;12.57;8.05;;;16.70;99.90;;;;;;5100229;28;20055;-52
2022/08/19 00:06:38;;;;;;;10.20;7.80;;;16.70;99.90;;;;;;5100758;28;20051;-52
2022/08/19 00:09:06;;;;;;;11.63;7.25;;;16.70;99.90;;;;;;5098867;28;20043;-53
2022/08/19 00:11:33;;;;;;;10.70;7.40;;;16.60;99.90;;;;;;5100285;28;20047;-53
2022/08/19 00:13:58;;;;;;;11.50;7.75;;;16.60;99.90;;;;;;5099381;28;20040;-52
2022/08/19 00:16:25;;;;;;;11.45;7.32;;;16.60;99.90;;;;;;5098800;28;20044;-52
2022/08/19 00:18:51;;;;;;;10.30;7.13;;;16.60;99.90;;;;;;5099550;28;20054;-53
2022/08/19 00:21:17;;;;;;;11.65;7.38;;;16.60;99.90;;;;;;5099987;28;20032;-51
2022/08/19 00:23:43;;;;;;;8.75;6.57;;;16.50;99.90;;;;;;5100200;28;20541;-52
2022/08/19 00:26:10;;;;;;;9.35;6.75;;;16.50;99.90;;;;;;5099175;28;20099;-52
2022/08/19 00:28:36;;;;;;;11.50;7.03;;;16.40;99.90;;;;;;5100048;28;20079;-52
2022/08/19 00:31:05;;;;;;;9.98;6.63;;;16.40;99.90;;;;;;5099211;28;20048;-50
2022/08/19 00:33:32;;;;;;;11.02;7.05;;;16.40;99.90;;;;;;5100113;28;20123;-51
2022/08/19 00:35:59;;;;;;;11.20;7.35;;;16.30;99.90;;;;;;5099469;28;20074;-50
2022/08/19 00:38:24;;;;;;;12.63;8.02;;;16.40;99.90;;;;;;5099632;28;20507;-54
2022/08/19 00:40:50;;;;;;;11.10;7.22;;;16.30;99.90;;;;;;5099988;28;20367;-48
2022/08/19 00:43:20;;;;;;;9.40;7.78;;;16.40;99.90;;;;;;5098987;28;20059;-51
2022/08/19 00:45:47;;;;;;;11.30;8.18;;;16.30;99.90;;;;;;5100000;28;20051;-49
2022/08/19 00:48:14;;;;;;;10.75;7.25;;;16.30;99.90;;;;;;5098633;28;20032;-51
2022/08/19 00:50:42;;;;;;;11.63;7.40;;;16.40;99.90;;;;;;5099119;28;20059;-52
2022/08/19 00:53:10;;;;;;;9.32;7.18;;;16.40;99.90;;;;;;5098871;28;20081;-52
2022/08/19 00:55:38;;;;;;;12.25;6.82;;;16.30;99.90;;;;;;5099184;28;20071;-50
2022/08/19 00:58:09;;;;;;;10.00;6.85;;;16.30;99.90;;;;;;5098337;28;20051;-52
2022/08/19 01:00:37;;;;;;;9.48;7.68;;;16.30;99.90;;;;;;5098488;28;20612;-52
2022/08/19 01:03:12;;;;;;;11.15;7.28;;;16.20;99.90;;;;;;5098138;28;20055;-52
2022/08/19 01:05:40;;;;;;;11.85;7.95;;;16.20;99.90;;;;;;5097822;28;20040;-50
2022/08/19 01:08:07;;;;;;;13.10;7.07;;;16.30;99.90;;;;;;5099219;28;20089;-50
2022/08/19 01:10:44;;;;;;;12.18;7.55;;;16.30;99.90;;;;;;5099123;28;20093;-52
2022/08/19 01:13:11;;;;;;;11.70;8.20;;;16.20;99.90;;;;;;5097396;28;20044;-50
2022/08/19 01:15:49;;;;;;;12.15;7.88;;;16.10;99.90;;;;;;5099462;28;20076;-50
2022/08/19 01:18:17;;;;;;;13.32;7.43;;;16.10;99.90;;;;;;5098278;28;20048;-51
2022/08/19 01:20:43;;;;;;;9.80;7.05;;;16.20;99.90;;;;;;5099334;28;20070;-53
2022/08/19 01:23:10;;;;;;;9.80;8.13;;;16.20;99.90;;;;;;5098710;28;20040;-51
2022/08/19 01:25:49;;;;;;;12.98;7.22;;;16.20;99.90;;;;;;5099058;28;20040;-50
2022/08/19 01:28:21;;;;;;;11.43;8.40;;;16.10;99.90;;;;;;5099699;28;20052;-51
2022/08/19 01:30:48;;;;;;;12.45;7.95;;;16.10;99.90;;;;;;5098284;28;20038;-52
2022/08/19 01:33:14;;;;;;;12.23;7.85;;;16.10;99.90;;;;;;5099304;28;20056;-52
2022/08/19 01:35:41;;;;;;;10.40;7.55;;;16.10;99.90;;;;;;5096856;28;20042;-51
2022/08/19 01:38:18;;;;;;;10.43;7.93;;;16.10;99.90;;;;;;5099012;28;20043;-50
2022/08/19 01:40:44;;;;;;;11.23;8.05;;;16.00;99.90;;;;;;5098713;28;20048;-51
2022/08/19 01:43:10;;;;;;;10.35;7.90;;;16.00;99.90;;;;;;5097265;28;20044;-52
2022/08/19 01:45:39;;;;;;;9.73;7.55;;;16.10;99.90;;;;;;5097656;28;20080;-52
2022/08/19 01:48:06;;;;;;;11.73;8.85;;;16.00;99.90;;;;;;5098016;28;20056;-52
2022/08/19 01:50:33;;;;;;;10.50;7.93;;;15.90;99.90;;;;;;5098322;28;20055;-51
2022/08/19 01:53:00;;;;;;;11.80;7.78;;;15.90;99.90;;;;;;5098583;28;20044;-52
2022/08/19 01:55:26;;;;;;;10.65;8.23;;;15.90;99.90;;;;;;5098749;28;20058;-51
2022/08/19 01:57:56;;;;;;;10.93;7.53;;;15.90;99.90;;;;;;5099249;28;20071;-50
2022/08/19 02:00:24;;;;;;;10.85;8.07;;;15.80;99.90;;;;;;5098095;28;20073;-52
2022/08/19 02:02:50;;;;;;;10.45;7.63;;;15.90;99.90;;;;;;5099151;28;20062;-51
2022/08/19 02:05:17;;;;;;;12.82;8.77;;;15.90;99.90;;;;;;5097856;28;20074;-49
2022/08/19 02:07:44;;;;;;;11.43;7.90;;;15.80;99.90;;;;;;5099138;28;20037;-52
2022/08/19 02:10:15;;;;;;;13.88;8.52;;;15.80;99.90;;;;;;5098167;28;20040;-51
2022/08/19 02:12:41;;;;;;;11.75;8.40;;;15.80;99.90;;;;;;5098592;28;20078;-50
2022/08/19 02:15:07;;;;;;;11.25;8.80;;;15.80;99.90;;;;;;5099043;28;20044;-48
2022/08/19 02:17:33;;;;;;;13.57;9.48;;;15.70;99.90;;;;;;5101286;28;20032;-50
2022/08/19 02:20:00;;;;;;;12.73;8.88;;;15.70;99.90;;;;;;5102792;28;20048;-51
2022/08/19 02:22:26;;;;;;;12.55;9.20;;;15.80;99.90;;;;;;5101441;28;20499;-52
2022/08/19 02:24:52;;;;;;;13.45;9.32;;;15.90;99.90;;;;;;5102819;28;20044;-51
2022/08/19 02:27:18;;;;;;;15.30;9.40;;;15.80;99.90;;;;;;5101545;28;20085;-49
2022/08/19 02:29:46;;;;;;;15.95;9.50;;;15.80;99.90;;;;;;5102174;28;20043;-52
2022/08/19 02:32:13;;;;;;;13.25;9.35;;;15.80;99.90;;;;;;5102588;28;20040;-49
2022/08/19 02:34:39;;;;;;;13.05;9.45;;;15.80;99.90;;;;;;5101678;28;20040;-51
2022/08/19 02:37:05;;;;;;;16.92;10.50;;;15.70;99.90;;;;;;5102625;28;20055;-49
2022/08/19 02:39:30;;;;;;;15.07;10.38;;;15.90;99.90;;;;;;5101013;28;20044;-50
2022/08/19 02:41:59;;;;;;;12.73;9.32;;;15.80;99.90;;;;;;5102281;28;20048;-51
2022/08/19 02:44:25;;;;;;;13.00;9.40;;;15.80;99.90;;;;;;5101590;28;20040;-49
2022/08/19 02:46:50;;;;;;;13.57;9.80;;;15.80;99.90;;;;;;5102017;28;20055;-49
2022/08/19 02:49:16;;;;;;;13.85;9.82;;;15.80;99.90;;;;;;5101877;28;20109;-49
2022/08/19 02:51:45;;;;;;;14.27;10.07;;;15.70;99.90;;;;;;5101213;28;20126;-49
2022/08/19 02:54:12;;;;;;;13.32;9.95;;;15.80;99.90;;;;;;5102228;28;20054;-51
2022/08/19 02:56:40;;;;;;;14.13;9.40;;;15.70;99.90;;;;;;5100836;28;20048;-49
2022/08/19 02:59:10;;;;;;;14.38;9.73;;;15.70;99.90;;;;;;5102046;28;20039;-52
2022/08/19 03:01:37;;;;;;;13.05;9.85;;;15.80;99.90;;;;;;5101289;28;20070;-49
2022/08/19 03:04:06;;;;;;;14.88;9.52;;;15.70;99.90;;;;;;5101760;28;20032;-50
2022/08/19 03:06:32;;;;;;;13.48;9.38;;;15.80;99.90;;;;;;5100736;28;20074;-50
2022/08/19 03:08:58;;;;;;;13.48;9.68;;;15.80;99.90;;;;;;5098782;28;20048;-52
2022/08/19 03:11:33;;;;;;;12.50;9.02;;;15.70;99.90;;;;;;5101875;28;20036;-52
2022/08/19 03:14:00;;;;;;;14.85;9.48;;;15.70;99.90;;;;;;5100444;28;20071;-49
2022/08/19 03:16:28;;;;;;;13.70;9.15;;;15.70;99.90;;;;;;5101687;28;20062;-52
2022/08/19 03:18:56;;;;;;;12.65;8.68;;;15.70;99.90;;;;;;5101096;28;20036;-50
2022/08/19 03:21:25;;;;;;;15.48;9.30;;;15.60;99.90;;;;;;5101002;28;20071;-50
2022/08/19 03:23:54;;;;;;;13.73;9.07;;;15.60;99.90;;;;;;5101776;28;20042;-52
2022/08/19 03:26:20;;;;;;;14.88;9.10;;;15.60;99.90;;;;;;5100569;28;20043;-52
2022/08/19 03:28:49;;;;;;;15.15;9.55;;;15.60;99.90;;;;;;5100662;28;20040;-52
2022/08/19 03:31:21;;;;;;;11.95;8.65;;;15.60;99.90;;;;;;5100092;28;20044;-50
2022/08/19 03:33:47;;;;;;;11.43;8.70;;;15.60;99.90;;;;;;5101282;28;20108;-50
2022/08/19 03:36:22;;;;;;;12.13;8.80;;;15.60;99.90;;;;;;5100965;28;20079;-51
2022/08/19 03:38:54;;;;;;;12.07;8.77;;;15.50;99.90;;;;;;5100215;28;20040;-56
2022/08/19 03:41:22;;;;;;;13.93;8.68;;;15.50;99.90;;;;;;5101416;28;20047;-50
2022/08/19 03:43:48;;;;;;;11.63;8.80;;;15.50;99.90;;;;;;5100093;28;20052;-53
2022/08/19 03:46:17;;;;;;;12.63;9.13;;;15.50;99.90;;;;;;5099343;28;20051;-53
2022/08/19 03:48:43;;;;;;;13.63;8.82;;;15.50;99.90;;;;;;5100058;28;20141;-49
2022/08/19 03:51:24;;;;;;;15.75;9.13;;;15.60;99.90;;;;;;5100497;28;20083;-50
2022/08/19 03:53:51;;;;;;;16.42;9.35;;;15.60;99.90;;;;;;5101182;28;20079;-52
2022/08/19 03:56:18;;;;;;;13.90;9.68;;;15.50;99.90;;;;;;5099932;28;20075;-50
2022/08/19 03:58:44;;;;;;;13.48;9.40;;;15.50;99.90;;;;;;5101134;28;20048;-52
2022/08/19 04:01:17;;;;;;;13.80;9.25;;;15.40;99.90;;;;;;5099626;28;20104;-51
2022/08/19 04:03:43;;;;;;;13.25;8.77;;;15.50;99.90;;;;;;5100604;28;20040;-52
2022/08/19 04:06:14;;;;;;;12.63;9.65;;;15.40;99.90;;;;;;5100377;28;20077;-51
2022/08/19 04:08:41;;;;;;;11.82;9.00;;;15.40;99.90;;;;;;5099942;28;20358;-49
2022/08/19 04:11:14;;;;;;;14.05;9.60;;;15.40;99.90;;;;;;5100776;28;20043;-51
2022/08/19 04:13:40;;;;;;;12.63;9.02;;;15.40;99.90;;;;;;5099296;28;20511;-51
2022/08/19 04:16:06;;;;;;;13.55;9.45;;;15.40;99.90;;;;;;5100221;28;20044;-52
2022/08/19 04:18:33;;;;;;;13.73;9.20;;;15.50;99.90;;;;;;5099069;28;20051;-51
2022/08/19 04:20:59;;;;;;;13.73;9.38;;;15.50;99.90;;;;;;5099950;28;20506;-53
2022/08/19 04:23:27;;;;;;;12.45;9.57;;;15.40;99.90;;;;;;5099796;28;20051;-52
2022/08/19 04:25:54;;;;;;;11.38;8.63;;;15.40;99.90;;;;;;5099123;28;20044;-51
2022/08/19 04:28:20;;;;;;;12.23;9.07;;;15.40;99.90;;;;;;5100408;28;20047;-51
2022/08/19 04:30:48;;;;;;;12.30;8.95;;;15.40;99.90;;;;;;5099132;28;20044;-53
2022/08/19 04:33:16;;;;;;;14.18;9.35;;;15.40;99.90;;;;;;5100369;28;20058;-50
2022/08/19 04:35:45;;;;;;;13.07;8.90;;;15.40;99.90;;;;;;5097944;28;20048;-52
2022/08/19 04:38:11;;;;;;;14.15;9.27;;;15.30;99.90;;;;;;5099804;28;20032;-50
2022/08/19 04:43:30;;;;;;;12.93;8.35;;;15.30;99.90;;;;;;5099129;28;20079;-51
2022/08/19 04:45:56;;;;;;;12.48;8.20;;;15.40;99.90;;;;;;5099970;28;20480;-52
2022/08/19 04:48:28;;;;;;;13.20;8.88;;;15.30;99.90;;;;;;5098968;28;20036;-49
2022/08/19 04:50:59;;;;;;;12.82;8.75;;;15.30;99.90;;;;;;5099030;28;20059;-52
2022/08/19 04:53:29;;;;;;;12.75;8.65;;;15.40;99.90;;;;;;5099384;28;20052;-50
2022/08/19 04:55:56;;;;;;;13.50;9.00;;;15.40;99.90;;;;;;5098742;28;20056;-52
2022/08/19 04:58:24;;;;;;;12.32;9.00;;;15.40;99.90;;;;;;5100054;28;20496;-50
2022/08/19 05:00:50;;;;;;;15.68;9.32;;;15.50;99.90;;;;;;5098630;28;20032;-51
2022/08/19 05:03:16;;;;;;;12.60;8.70;;;15.50;99.90;;;;;;5099808;28;20040;-51
2022/08/19 05:05:48;;;;;;;12.32;8.68;;;15.50;99.90;;;;;;5098778;28;20070;-52
2022/08/19 05:08:19;;;;;;;14.10;9.07;;;15.50;99.90;;;;;;5099514;28;20054;-51
2022/08/19 05:10:45;;;;;;;12.25;8.48;;;15.50;99.90;;;;;;5099713;28;20537;-49
2022/08/19 05:13:11;;;;;;;14.23;9.32;;;15.50;99.90;;;;;;5098739;28;20032;-51
2022/08/19 05:15:37;;;;;;;13.15;8.02;;;15.60;99.90;;;;;;5099648;28;20093;-52
2022/08/19 05:23:32;;;;;;;12.23;8.98;;;15.80;99.90;;;;;;5099747;28;20077;-52
2022/08/19 05:25:58;;;;;;;13.20;9.15;;;15.80;99.90;;;;;;5098620;28;20040;-49
2022/08/19 05:28:23;;;;;;;14.07;8.85;;;16.00;99.90;;;;;;5099442;28;20036;-51
2022/08/19 05:30:50;;;;;;;14.50;9.60;;;15.90;99.90;;;;;;5098082;28;20062;-52
2022/08/19 05:33:17;;;;;;;13.60;8.90;;;16.00;99.90;;;;;;5099503;28;20048;-52
2022/08/19 05:35:44;;;;;;;13.45;9.60;;;16.00;99.90;;;;;;5098729;28;20036;-50
2022/08/19 05:38:10;;;;;;;13.57;9.35;;;16.00;99.90;;;;;;5099040;28;20158;-48
2022/08/19 05:40:38;;;;;;;15.38;10.98;;;16.10;99.90;;;;;;5099058;28;20535;-50
2022/08/19 05:43:05;;;;;;;15.43;10.27;;;16.10;99.90;;;;;;5098464;28;20028;-51
2022/08/19 05:45:31;;;;;;;14.00;9.90;;;16.20;99.90;;;;;;5097432;28;20127;-52
2022/08/19 05:47:58;;;;;;;15.38;10.15;;;16.20;99.90;;;;;;5094600;28;20088;-48
2022/08/19 05:50:26;;;;;;;15.45;11.13;;;16.40;99.90;;;;;;5095712;28;20081;-52
2022/08/19 05:52:52;;;;;;;16.85;11.00;;;16.40;99.90;;;;;;5099161;28;20056;-52
2022/08/19 05:55:20;;;;;;;15.50;9.70;;;16.60;99.90;;;;;;5099775;28;20096;-49
2022/08/19 05:57:46;;;;;;;14.07;9.85;;;16.60;99.90;;;;;;5099630;28;20052;-48
2022/08/19 06:00:13;;;;;;;14.98;10.35;;;16.60;99.90;;;;;;5099037;28;20074;-49
2022/08/19 06:02:39;;;;;;;16.70;10.32;;;16.70;99.90;;;;;;5100017;28;20044;-51
2022/08/19 06:05:08;;;;;;;14.57;10.40;;;16.80;99.90;;;;;;5098684;28;20059;-50
2022/08/19 06:07:35;;;;;;;15.70;9.77;;;16.90;99.90;;;;;;5098287;28;20063;-51
2022/08/19 06:10:03;;;;;;;16.42;10.55;;;17.00;99.90;;;;;;5098390;28;20073;-50
2022/08/19 06:12:31;;;;;;;15.45;10.60;;;17.00;99.90;;;;;;5099274;28;20063;-51
2022/08/19 06:14:57;;;;;;;15.85;10.73;;;17.10;99.90;;;;;;5099725;28;20056;-51
2022/08/19 06:17:25;;;;;;;17.08;10.57;;;17.20;99.90;;;;;;5098650;28;20078;-50
2022/08/19 06:19:51;;;;;;;15.13;10.68;;;17.20;99.90;;;;;;5081491;28;20146;-52
2022/08/19 06:22:17;;;;;;;13.43;9.50;;;17.20;99.90;;;;;;5098109;28;20083;-52
2022/08/19 06:24:42;;;;;;;15.80;10.35;;;17.50;99.90;;;;;;5099384;28;20048;-50
2022/08/19 06:27:10;;;;;;;15.50;10.68;;;17.50;99.90;;;;;;5097125;28;20066;-52
2022/08/19 06:29:35;;;;;;;17.17;11.48;;;17.60;99.90;;;;;;5097820;28;20072;-53
2022/08/19 06:32:02;;;;;;;16.65;11.50;;;17.60;99.90;;;;;;5099213;28;20451;-50
2022/08/19 06:34:32;;;;;;;15.82;11.48;;;17.70;99.90;;;;;;5087398;28;20517;-53
2022/08/19 06:37:02;;;;;;;15.85;10.65;;;17.70;99.90;;;;;;5095536;28;20103;-52
2022/08/19 06:39:31;;;;;;;14.20;10.35;;;17.90;99.90;;;;;;5097560;28;20114;-49
2022/08/19 06:42:01;;;;;;;16.45;11.13;;;18.00;99.90;;;;;;5099275;28;20047;-50
2022/08/19 06:44:31;;;;;;;14.20;10.35;;;18.10;99.90;;;;;;5098534;28;20071;-51
2022/08/19 06:46:56;;;;;;;14.68;11.05;;;18.20;99.90;;;;;;5096910;28;20047;-53
2022/08/19 06:49:23;;;;;;;17.88;10.88;;;18.20;99.90;;;;;;5098898;28;20071;-50
2022/08/19 06:51:49;;;;;;;14.65;11.32;;;18.20;99.90;;;;;;5097979;28;20036;-49
2022/08/19 06:54:17;;;;;;;15.15;11.43;;;18.20;99.90;;;;;;5098919;28;20530;-53
2022/08/19 06:56:45;;;;;;;14.75;11.63;;;18.20;99.90;;;;;;5097832;28;20051;-51
2022/08/19 06:59:13;;;;;;;19.92;11.63;;;18.30;99.90;;;;;;5098540;28;20056;-52
2022/08/19 07:01:42;;;;;;;17.80;11.52;;;18.40;99.90;;;;;;5096627;28;20048;-50
2022/08/19 07:04:09;;;;;;;17.45;11.50;;;18.50;99.90;;;;;;5097449;28;20071;-52
2022/08/19 07:06:36;;;;;;;15.40;12.07;;;18.60;99.90;;;;;;5101586;28;20036;-53
2022/08/19 07:09:06;;;;;;;15.63;11.77;;;18.60;99.90;;;;;;5099132;28;20044;-49
2022/08/19 07:11:32;;;;;;;17.38;11.77;;;18.70;99.90;;;;;;5101639;28;20469;-48
2022/08/19 07:13:59;;;;;;;17.67;12.68;;;18.80;99.90;;;;;;5100668;28;20036;-50
2022/08/19 07:16:24;;;;;;;15.55;11.43;;;19.00;99.90;;;;;;5101311;28;20036;-52
2022/08/19 07:18:51;;;;;;;15.68;11.38;;;19.10;99.90;;;;;;5100089;28;20074;-51
2022/08/19 07:21:20;;;;;;;15.00;11.68;;;19.10;99.90;;;;;;5093385;28;20391;-51
2022/08/19 07:23:47;;;;;;;17.92;12.20;;;19.20;99.90;;;;;;5101664;28;20043;-58
2022/08/19 07:26:17;;;;;;;15.13;11.45;;;19.20;99.90;;;;;;5100227;28;20106;-52
2022/08/19 07:28:44;;;;;;;18.33;12.48;;;19.40;99.90;;;;;;5100791;28;20044;-50
2022/08/19 07:31:14;;;;;;;17.63;12.38;;;19.50;99.90;;;;;;5100069;28;20044;-50
2022/08/19 07:33:42;;;;;;;17.05;12.52;;;19.50;99.90;;;;;;5100328;28;20048;-51
2022/08/19 07:36:11;;;;;;;19.90;13.23;;;19.70;99.90;;;;;;5100706;28;20075;-54
2022/08/19 07:38:38;;;;;;;15.95;12.00;;;19.60;99.90;;;;;;5099770;28;20044;-51
2022/08/19 07:41:04;;;;;;;16.38;12.07;;;19.80;99.90;;;;;;5100988;28;20032;-50
2022/08/19 07:43:30;;;;;;;14.60;11.52;;;19.90;99.90;;;;;;5099807;28;20043;-51
2022/08/19 07:45:56;;;;;;;16.52;11.68;;;20.00;99.90;;;;;;5099933;28;20100;-51
2022/08/19 07:48:26;;;;;;;15.13;11.80;;;20.10;99.90;;;;;;5098962;28;20052;-49
2022/08/19 07:51:01;;;;;;;14.95;10.43;;;20.20;99.90;;;;;;5100110;28;20044;-51
2022/08/19 07:53:30;;;;;;;12.85;11.20;;;20.30;99.90;;;;;;5100822;28;20107;-51
2022/08/19 07:55:59;;;;;;;17.48;11.27;;;20.50;99.90;;;;;;5099893;28;20044;-51
2022/08/19 07:58:25;;;;;;;15.52;11.98;;;20.60;99.90;;;;;;5100696;28;20056;-52
2022/08/19 08:00:51;;;;;;;19.02;13.15;;;20.70;99.90;;;;;;5099316;28;20062;-55
2022/08/19 08:03:20;;;;;;;15.95;11.57;;;20.80;99.90;;;;;;5100721;28;20069;-52
2022/08/19 08:10:57;;;;;;;17.02;11.60;;;20.90;99.90;;;;;;5100332;28;20044;-50
2022/08/19 08:13:23;;;;;;;17.17;13.10;;;21.10;99.90;;;;;;5099091;28;20059;-51
2022/08/19 08:15:49;;;;;;;14.68;11.25;;;21.10;99.90;;;;;;5099099;28;20075;-52
2022/08/19 08:18:15;;;;;;;17.65;12.70;;;21.10;99.90;;;;;;5099237;28;20048;-49
2022/08/19 08:20:41;;;;;;;16.23;12.68;;;21.10;99.90;;;;;;5100314;28;20069;-49
2022/08/19 08:23:25;;;;;;;16.35;13.25;;;21.20;99.90;;;;;;5099784;28;20040;-51
2022/08/19 08:25:56;;;;;;;16.25;13.20;;;21.20;99.90;;;;;;5099296;28;20055;-50
2022/08/19 08:28:23;;;;;;;16.10;12.65;;;21.20;99.90;;;;;;5100543;28;20047;-49
2022/08/19 08:30:49;;;;;;;17.83;13.05;;;21.30;99.90;;;;;;5098675;28;20056;-51
2022/08/19 08:33:21;;;;;;;16.48;13.30;;;21.30;99.90;;;;;;5099954;28;20040;-50
2022/08/19 08:35:47;;;;;;;16.48;12.68;;;21.30;99.90;;;;;;5097359;28;20040;-51
2022/08/19 08:38:14;;;;;;;16.48;12.70;;;21.50;99.90;;;;;;5095872;28;20043;-52
2022/08/19 08:40:50;;;;;;;15.63;12.32;;;21.50;99.90;;;;;;5080430;28;20052;-50
2022/08/19 08:43:33;;;;;;;17.60;13.52;;;21.60;99.90;;;;;;5077549;28;20046;-50
2022/08/19 08:46:10;;;;;;;16.60;13.10;;;21.70;99.90;;;;;;5079498;28;20032;-52
2022/08/19 08:48:46;;;;;;;18.20;13.75;;;21.80;99.90;;;;;;5078746;28;20048;-49
2022/08/19 08:51:22;;;;;;;19.10;13.52;;;21.80;99.90;;;;;;5078549;28;20110;-52
2022/08/19 08:53:50;;;;;;;17.67;13.68;;;21.80;99.90;;;;;;5079428;28;20041;-51
2022/08/19 08:56:18;;;;;;;16.85;13.02;;;21.80;99.90;;;;;;5078280;28;20048;-50
2022/08/19 08:58:52;;;;;;;20.27;13.93;;;22.10;99.90;;;;;;5079549;28;20047;-51
2022/08/19 09:01:19;;;;;;;17.38;13.13;;;22.20;99.90;;;;;;5078214;28;20053;-52
2022/08/19 09:03:45;;;;;;;18.33;14.40;;;22.20;99.90;;;;;;5078641;28;20052;-53
2022/08/19 09:06:38;;;;;;;17.17;14.32;;;22.40;99.90;;;;;;5079098;28;20037;-52
2022/08/19 09:09:09;;;;;;;17.60;14.50;;;22.50;99.90;;;;;;5077822;28;20451;-49
2022/08/19 09:12:13;;;;;;;17.33;13.38;;;22.40;99.90;;;;;;5078600;28;20068;-55
2022/08/19 09:14:56;;;;;;;18.80;14.23;;;22.50;99.90;;;;;;5078532;28;20047;-51
2022/08/19 09:17:30;;;;;;;17.75;13.68;;;22.60;99.90;;;;;;5082673;28;20058;-52
2022/08/19 09:20:25;;;;;;;16.05;13.13;;;22.60;99.90;;;;;;5097206;28;20073;-51
2022/08/19 09:22:51;;;;;;;16.80;13.68;;;22.70;99.90;;;;;;5093203;28;20059;-51
2022/08/19 09:25:21;;;;;;;17.02;14.25;;;22.60;99.90;;;;;;5098376;28;20036;-50
2022/08/19 09:27:48;;;;;;;19.10;14.40;;;22.60;99.90;;;;;;5098979;28;20064;-50
2022/08/19 09:30:24;;;;;;;19.08;14.73;;;22.60;99.90;;;;;;5097843;28;20065;-50
2022/08/19 09:32:52;;;;;;;20.90;16.58;;;22.70;99.90;;;;;;5099046;28;20039;-50
2022/08/19 09:35:21;;;;;;;20.38;15.30;;;22.80;99.90;;;;;;5097765;28;20071;-51
2022/08/19 09:37:49;;;;;;;17.90;15.40;;;22.90;99.90;;;;;;5098584;28;20052;-53
2022/08/19 09:40:16;;;;;;;15.20;13.15;;;22.90;99.90;;;;;;5098477;28;20438;-54
2022/08/19 09:42:44;;;;;;;16.83;13.02;;;23.10;99.90;;;;;;5097890;28;20431;-51
2022/08/19 09:45:10;;;;;;;15.63;13.27;;;23.10;99.90;;;;;;5099233;28;20048;-51
2022/08/19 09:47:38;;;;;;;16.48;13.75;;;23.00;99.90;;;;;;5097930;28;20130;-49
2022/08/19 09:50:06;;;;;;;18.80;13.50;;;23.00;99.90;;;;;;5098624;28;20052;-51
2022/08/19 09:52:31;;;;;;;16.30;13.15;;;23.10;99.90;;;;;;5097873;28;20071;-48
2022/08/19 09:54:57;;;;;;;16.85;13.45;;;23.20;99.90;;;;;;5098762;28;20059;-50
2022/08/19 09:57:23;;;;;;;17.40;14.82;;;23.30;99.90;;;;;;5097988;28;20062;-48
2022/08/19 09:59:48;;;;;;;18.40;15.77;;;23.20;99.90;;;;;;5098445;28;20125;-48
2022/08/19 10:02:14;;;;;;;18.10;14.52;;;23.30;99.90;;;;;;5098716;28;20052;-49
2022/08/19 10:07:24;;;;;;;20.25;15.40;;;23.40;99.90;;;;;;5098280;28;20070;-52
2022/08/19 10:09:50;;;;;;;15.65;13.25;;;23.50;99.90;;;;;;5096775;28;20036;-50
2022/08/19 10:12:15;;;;;;;18.63;14.63;;;23.70;99.90;;;;;;5087874;28;20104;-50
2022/08/19 10:14:42;;;;;;;17.65;14.57;;;23.70;99.90;;;;;;5088501;28;20029;-50
2022/08/19 10:17:08;;;;;;;18.83;15.40;;;23.80;99.90;;;;;;5084250;28;20044;-50
2022/08/19 10:19:35;;;;;;;21.25;17.65;;;23.80;99.90;;;;;;5086858;28;20037;-51
2022/08/19 10:22:06;;;;;;;19.40;16.98;;;23.70;99.90;;;;;;5090375;28;20087;-49
2022/08/19 10:24:36;;;;;;;19.20;16.23;;;23.90;99.90;;;;;;5098866;28;20112;-48
2022/08/19 10:27:05;;;;;;;21.08;17.95;;;23.90;99.90;;;;;;5097505;28;20044;-49
2022/08/19 10:29:31;;;;;;;20.55;17.27;;;24.00;99.90;;;;;;5098054;28;20047;-50
2022/08/19 10:31:59;;;;;;;23.58;19.30;;;24.00;99.90;;;;;;5098613;28;20288;-49
2022/08/19 10:34:28;;;;;;;19.58;17.50;;;23.90;99.90;;;;;;5097973;28;20048;-48
2022/08/19 10:36:55;;;;;;;19.27;16.88;;;24.00;99.90;;;;;;5099178;28;20036;-49
2022/08/19 10:39:21;;;;;;;18.42;14.35;;;24.00;99.90;;;;;;5100852;28;20032;-51
2022/08/19 10:41:47;;;;;;;21.65;18.58;;;24.20;99.90;;;;;;5102127;28;20047;-49
2022/08/19 10:44:13;;;;;;;18.67;16.52;;;24.20;99.90;;;;;;5099992;28;20499;-49
2022/08/19 10:46:42;;;;;;;20.58;18.00;;;24.40;99.90;;;;;;5101832;28;20052;-50
2022/08/19 10:49:09;;;;;;;20.13;16.75;;;24.30;99.90;;;;;;5102053;28;20051;-51
2022/08/19 10:54:21;;;;;;;17.77;15.90;;;24.30;99.90;;;;;;5101803;28;20051;-52
2022/08/19 10:56:52;;;;;;;19.13;15.63;;;24.10;99.90;;;;;;5100978;28;20047;-51
2022/08/19 10:59:24;;;;;;;18.08;15.32;;;24.00;99.90;;;;;;5101583;28;20146;-51
2022/08/19 11:01:51;;;;;;;19.23;16.90;;;24.00;99.90;;;;;;5101884;28;20035;-50
2022/08/19 11:04:18;;;;;;;18.00;15.77;;;24.10;99.90;;;;;;5101106;28;20077;-49
2022/08/19 11:06:47;;;;;;;18.83;14.50;;;24.40;99.90;;;;;;5100376;28;20069;-52
2022/08/19 11:09:16;;;;;;;15.35;13.70;;;24.40;99.90;;;;;;5100399;28;20047;-50
2022/08/19 11:11:43;;;;;;;18.30;14.55;;;24.60;99.90;;;;;;5101205;28;20093;-49
2022/08/19 11:14:12;;;;;;;17.75;14.55;;;24.60;99.90;;;;;;5100967;28;20044;-52
2022/08/19 11:16:42;;;;;;;16.85;13.95;;;24.50;99.90;;;;;;5100934;28;20062;-49
2022/08/19 11:19:10;;;;;;;20.38;15.50;;;24.30;99.90;;;;;;5101494;28;20051;-48
2022/08/19 11:21:38;;;;;;;18.40;15.30;;;24.40;99.90;;;;;;5100563;28;20028;-50
2022/08/19 11:24:08;;;;;;;18.00;16.02;;;24.40;99.90;;;;;;5101265;28;20040;-50
2022/08/19 11:26:35;;;;;;;17.70;15.77;;;24.10;99.90;;;;;;5100187;28;20043;-51
2022/08/19 11:29:01;;;;;;;19.10;16.42;;;24.20;99.90;;;;;;5101124;28;20047;-52
2022/08/19 11:31:31;;;;;;;18.42;16.52;;;24.20;99.90;;;;;;5099061;28;20051;-51
2022/08/19 11:33:59;;;;;;;16.98;15.18;;;24.50;99.90;;;;;;5100827;28;20116;-49
2022/08/19 11:36:25;;;;;;;15.55;13.80;;;24.60;99.90;;;;;;5101007;28;20105;-51
2022/08/19 11:38:51;;;;;;;17.92;14.90;;;24.60;99.90;;;;;;5099865;28;20039;-52
2022/08/19 11:41:20;;;;;;;16.02;14.18;;;24.60;99.90;;;;;;5100738;28;20035;-48
2022/08/19 11:43:46;;;;;;;15.95;12.43;;;24.60;99.90;;;;;;5099755;28;20083;-51
2022/08/19 11:46:13;;;;;;;16.20;13.15;;;24.80;99.90;;;;;;5101111;28;20044;-48
2022/08/19 11:48:40;;;;;;;16.27;12.00;;;24.80;99.90;;;;;;5099400;28;20457;-49
2022/08/19 11:51:10;;;;;;;17.77;15.02;;;24.80;99.90;;;;;;5100210;28;20056;-50
2022/08/19 11:53:37;;;;;;;14.40;12.90;;;24.80;99.90;;;;;;5100982;28;20047;-51
2022/08/19 11:56:04;;;;;;;17.45;13.05;;;25.10;99.90;;;;;;5099213;28;20044;-49
2022/08/19 11:58:30;;;;;;;17.13;14.35;;;25.40;99.90;;;;;;5100153;28;20592;-49
2022/08/19 12:00:56;;;;;;;15.65;13.43;;;25.30;99.90;;;;;;5099465;28;20104;-51
2022/08/19 12:03:22;;;;;;;14.27;12.10;;;25.20;99.90;;;;;;5100375;28;20047;-49
2022/08/19 12:05:48;;;;;;;14.50;12.23;;;25.00;99.90;;;;;;5098081;28;20032;-51
2022/08/19 12:08:15;;;;;;;17.00;13.40;;;25.10;99.90;;;;;;5088196;28;20053;-48
2022/08/19 12:10:42;;;;;;;15.98;14.13;;;24.70;99.90;;;;;;5090080;28;20096;-50
2022/08/19 12:13:09;;;;;;;15.32;12.70;;;24.60;99.90;;;;;;5088749;28;20102;-51
2022/08/19 12:15:37;;;;;;;18.40;13.38;;;24.60;99.90;;;;;;5088389;28;20677;-52
2022/08/19 12:18:04;;;;;;;18.52;14.35;;;24.60;99.90;;;;;;5088474;28;20044;-49
2022/08/19 12:20:30;;;;;;;17.52;14.60;;;24.60;99.90;;;;;;5088588;28;20044;-49
2022/08/19 12:22:55;;;;;;;19.02;13.35;;;24.50;99.90;;;;;;5089983;28;20052;-50
2022/08/19 12:25:21;;;;;;;16.85;12.50;;;24.40;99.90;;;;;;5088228;28;20040;-51
2022/08/19 12:27:47;;;;;;;17.92;13.00;;;24.40;99.90;;;;;;5088922;28;20040;-51
2022/08/19 12:30:14;;;;;;;14.93;12.25;;;24.40;99.90;;;;;;5089654;28;20045;-48
2022/08/19 12:32:40;;;;;;;17.35;14.05;;;24.30;99.90;;;;;;5088488;28;20385;-52
2022/08/19 12:35:08;;;;;;;17.10;12.65;;;24.30;99.90;;;;;;5088504;28;20051;-51
2022/08/19 12:37:34;;;;;;;18.20;14.10;;;24.10;99.90;;;;;;5092080;28;20555;-51
2022/08/19 12:40:00;;;;;;;18.25;15.82;;;24.00;99.90;;;;;;5086709;28;20040;-49
2022/08/19 12:42:26;;;;;;;19.50;16.33;;;24.00;99.90;;;;;;5086888;28;20066;-49
2022/08/19 12:44:52;;;;;;;18.15;15.40;;;23.80;99.90;;;;;;5090841;28;20028;-53
2022/08/19 12:47:18;;;;;;;20.98;15.18;;;23.80;99.90;;;;;;5098650;28;20091;-53
2022/08/19 12:49:45;;;;;;;18.30;14.60;;;23.70;99.90;;;;;;5099638;28;20056;-49
2022/08/19 12:52:15;;;;;;;18.52;15.05;;;23.60;99.90;;;;;;5098382;28;20059;-50
2022/08/19 12:54:40;;;;;;;20.23;14.35;;;23.60;99.90;;;;;;5099697;28;20040;-49